sensor_id;sensor_type;location;lat;lon;timestamp;temperature;humidity
18998;DHT22;9632;51.018;4.284;2023-08-07T00:01:02;14.70;99.90
18998;DHT22;9632;51.018;4.284;2023-08-07T00:03:28;14.70;99.90
18998;DHT22;9632;51.018;4.284;2023-08-07T00:05:53;14.70;99.90
18998;DHT22;9632;51.018;4.284;2023-08-07T00:08:20;14.60;99.90
18998;DHT22;9632;51.018;4.284;2023-08-07T00:10:46;14.60;99.90
18998;DHT22;9632;51.018;4.284;2023-08-07T00:13:13;14.60;99.90
18998;DHT22;9632;51.018;4.284;2023-08-07T00:15:38;14.60;99.90
18998;DHT22;9632;51.018;4.284;2023-08-07T00:18:04;14.60;99.90
18998;DHT22;9632;51.018;4.284;2023-08-07T00:20:30;14.60;99.90
18998;DHT22;9632;51.018;4.284;2023-08-07T00:22:55;14.60;99.90
18998;DHT22;9632;51.018;4.284;2023-08-07T00:25:21;14.60;99.90
18998;DHT22;9632;51.018;4.284;2023-08-07T00:27:47;14.60;99.90
18998;DHT22;9632;51.018;4.284;2023-08-07T00:30:12;14.60;99.90
18998;DHT22;9632;51.018;4.284;2023-08-07T00:32:38;14.60;99.90
18998;DHT22;9632;51.018;4.284;2023-08-07T00:35:05;14.50;99.90
18998;DHT22;9632;51.018;4.284;2023-08-07T00:37:31;14.50;99.90
18998;DHT22;9632;51.018;4.284;2023-08-07T00:39:57;14.50;99.90
18998;DHT22;9632;51.018;4.284;2023-08-07T00:42:22;14.50;99.90
18998;DHT22;9632;51.018;4.284;2023-08-07T00:44:48;14.50;99.90
18998;DHT22;9632;51.018;4.284;2023-08-07T00:47:13;14.50;99.90
18998;DHT22;9632;51.018;4.284;2023-08-07T00:49:39;14.50;99.90
18998;DHT22;9632;51.018;4.284;2023-08-07T00:52:06;14.50;99.90
18998;DHT22;9632;51.018;4.284;2023-08-07T00:54:32;14.50;99.90
18998;DHT22;9632;51.018;4.284;2023-08-07T00:57:11;14.50;99.90
18998;DHT22;9632;51.018;4.284;2023-08-07T00:59:38;14.50;99.90
18998;DHT22;9632;51.018;4.284;2023-08-07T01:02:04;14.40;99.90
18998;DHT22;9632;51.018;4.284;2023-08-07T01:04:31;14.40;99.90
18998;DHT22;9632;51.018;4.284;2023-08-07T01:06:57;14.30;99.90
18998;DHT22;9632;51.018;4.284;2023-08-07T01:09:22;14.30;99.90
18998;DHT22;9632;51.018;4.284;2023-08-07T01:11:50;14.30;99.90
18998;DHT22;9632;51.018;4.284;2023-08-07T01:14:40;14.20;99.90
18998;DHT22;9632;51.018;4.284;2023-08-07T01:17:16;14.30;99.90
18998;DHT22;9632;51.018;4.284;2023-08-07T01:19:42;14.20;99.90
18998;DHT22;9632;51.018;4.284;2023-08-07T01:24:34;14.20;99.90
18998;DHT22;9632;51.018;4.284;2023-08-07T01:30:17;14.20;99.90
18998;DHT22;9632;51.018;4.284;2023-08-07T01:35:36;14.10;99.90
18998;DHT22;9632;51.018;4.284;2023-08-07T01:38:03;14.20;99.90
18998;DHT22;9632;51.018;4.284;2023-08-07T01:40:30;14.20;99.90
18998;DHT22;9632;51.018;4.284;2023-08-07T01:42:57;14.20;99.90
18998;DHT22;9632;51.018;4.284;2023-08-07T01:45:28;14.10;99.90
18998;DHT22;9632;51.018;4.284;2023-08-07T01:47:54;14.10;99.90
18998;DHT22;9632;51.018;4.284;2023-08-07T01:50:21;14.10;99.90
18998;DHT22;9632;51.018;4.284;2023-08-07T01:52:47;14.10;99.90
18998;DHT22;9632;51.018;4.284;2023-08-07T01:55:14;14.00;99.90
18998;DHT22;9632;51.018;4.284;2023-08-07T01:57:39;14.00;99.90
18998;DHT22;9632;51.018;4.284;2023-08-07T02:00:06;14.00;99.90
18998;DHT22;9632;51.018;4.284;2023-08-07T02:02:32;14.00;99.90
18998;DHT22;9632;51.018;4.284;2023-08-07T02:04:57;14.00;99.90
18998;DHT22;9632;51.018;4.284;2023-08-07T02:07:23;14.00;99.90
18998;DHT22;9632;51.018;4.284;2023-08-07T02:09:49;14.00;99.90
18998;DHT22;9632;51.018;4.284;2023-08-07T02:12:15;13.90;99.90
18998;DHT22;9632;51.018;4.284;2023-08-07T02:14:41;13.90;99.90
18998;DHT22;9632;51.018;4.284;2023-08-07T02:17:06;13.90;99.90
18998;DHT22;9632;51.018;4.284;2023-08-07T02:19:32;13.90;99.90
18998;DHT22;9632;51.018;4.284;2023-08-07T02:21:58;13.90;99.90
18998;DHT22;9632;51.018;4.284;2023-08-07T02:24:23;13.90;99.90
18998;DHT22;9632;51.018;4.284;2023-08-07T02:26:49;13.90;99.90
18998;DHT22;9632;51.018;4.284;2023-08-07T02:29:14;13.90;99.90
18998;DHT22;9632;51.018;4.284;2023-08-07T02:31:40;13.90;99.90
18998;DHT22;9632;51.018;4.284;2023-08-07T02:34:06;13.80;99.90
18998;DHT22;9632;51.018;4.284;2023-08-07T02:36:32;13.80;99.90
18998;DHT22;9632;51.018;4.284;2023-08-07T02:38:58;13.80;99.90
18998;DHT22;9632;51.018;4.284;2023-08-07T02:41:23;13.80;99.90
18998;DHT22;9632;51.018;4.284;2023-08-07T02:43:49;13.80;99.90
18998;DHT22;9632;51.018;4.284;2023-08-07T02:46:15;13.80;99.90
18998;DHT22;9632;51.018;4.284;2023-08-07T02:48:40;13.80;99.90
18998;DHT22;9632;51.018;4.284;2023-08-07T02:51:06;13.80;99.90
18998;DHT22;9632;51.018;4.284;2023-08-07T02:53:32;13.80;99.90
18998;DHT22;9632;51.018;4.284;2023-08-07T02:55:57;13.80;99.90
18998;DHT22;9632;51.018;4.284;2023-08-07T02:58:23;13.80;99.90
18998;DHT22;9632;51.018;4.284;2023-08-07T03:00:48;13.70;99.90
18998;DHT22;9632;51.018;4.284;2023-08-07T03:03:14;13.70;99.90
18998;DHT22;9632;51.018;4.284;2023-08-07T03:05:50;13.80;99.90
18998;DHT22;9632;51.018;4.284;2023-08-07T03:08:16;13.80;99.90
18998;DHT22;9632;51.018;4.284;2023-08-07T03:10:49;13.70;99.90
18998;DHT22;9632;51.018;4.284;2023-08-07T03:13:15;13.70;99.90
18998;DHT22;9632;51.018;4.284;2023-08-07T03:15:40;13.70;99.90
18998;DHT22;9632;51.018;4.284;2023-08-07T03:18:06;13.70;99.90
18998;DHT22;9632;51.018;4.284;2023-08-07T03:20:31;13.70;99.90
18998;DHT22;9632;51.018;4.284;2023-08-07T03:22:57;13.70;99.90
18998;DHT22;9632;51.018;4.284;2023-08-07T03:25:23;13.70;99.90
18998;DHT22;9632;51.018;4.284;2023-08-07T03:27:48;13.70;99.90
18998;DHT22;9632;51.018;4.284;2023-08-07T03:30:14;13.70;99.90
18998;DHT22;9632;51.018;4.284;2023-08-07T03:32:40;13.70;99.90
18998;DHT22;9632;51.018;4.284;2023-08-07T03:35:07;13.80;99.90
18998;DHT22;9632;51.018;4.284;2023-08-07T03:37:33;13.80;99.90
18998;DHT22;9632;51.018;4.284;2023-08-07T03:39:58;13.80;99.90
18998;DHT22;9632;51.018;4.284;2023-08-07T03:42:24;13.90;99.90
18998;DHT22;9632;51.018;4.284;2023-08-07T03:44:49;13.90;99.90
18998;DHT22;9632;51.018;4.284;2023-08-07T03:47:15;13.80;99.90
18998;DHT22;9632;51.018;4.284;2023-08-07T03:49:41;13.90;99.90
18998;DHT22;9632;51.018;4.284;2023-08-07T03:52:07;13.90;99.90
18998;DHT22;9632;51.018;4.284;2023-08-07T03:54:32;13.90;99.90
18998;DHT22;9632;51.018;4.284;2023-08-07T03:56:58;13.90;99.90
18998;DHT22;9632;51.018;4.284;2023-08-07T03:59:23;13.90;99.90
18998;DHT22;9632;51.018;4.284;2023-08-07T04:01:49;13.90;99.90
18998;DHT22;9632;51.018;4.284;2023-08-07T04:04:15;13.90;99.90
18998;DHT22;9632;51.018;4.284;2023-08-07T04:06:40;13.90;99.90
18998;DHT22;9632;51.018;4.284;2023-08-07T04:09:06;13.90;99.90
18998;DHT22;9632;51.018;4.284;2023-08-07T04:11:35;13.90;99.90
18998;DHT22;9632;51.018;4.284;2023-08-07T04:14:01;13.90;99.90
18998;DHT22;9632;51.018;4.284;2023-08-07T04:16:26;13.90;99.90
18998;DHT22;9632;51.018;4.284;2023-08-07T04:18:52;13.90;99.90
18998;DHT22;9632;51.018;4.284;2023-08-07T04:21:18;13.90;99.90
18998;DHT22;9632;51.018;4.284;2023-08-07T04:23:43;13.90;99.90
18998;DHT22;9632;51.018;4.284;2023-08-07T04:26:09;13.90;99.90
18998;DHT22;9632;51.018;4.284;2023-08-07T04:28:35;13.90;99.90
18998;DHT22;9632;51.018;4.284;2023-08-07T04:31:01;13.90;99.90
18998;DHT22;9632;51.018;4.284;2023-08-07T04:33:28;13.90;99.90
18998;DHT22;9632;51.018;4.284;2023-08-07T04:35:53;13.90;99.90
18998;DHT22;9632;51.018;4.284;2023-08-07T04:38:20;13.90;99.90
18998;DHT22;9632;51.018;4.284;2023-08-07T04:40:50;13.90;99.90
18998;DHT22;9632;51.018;4.284;2023-08-07T04:43:16;13.90;99.90
18998;DHT22;9632;51.018;4.284;2023-08-07T04:45:42;13.90;99.90
18998;DHT22;9632;51.018;4.284;2023-08-07T04:48:10;13.90;99.90
18998;DHT22;9632;51.018;4.284;2023-08-07T04:50:37;13.90;99.90
18998;DHT22;9632;51.018;4.284;2023-08-07T04:53:04;13.90;99.90
18998;DHT22;9632;51.018;4.284;2023-08-07T04:55:31;13.90;99.90
18998;DHT22;9632;51.018;4.284;2023-08-07T04:57:57;14.00;99.90
18998;DHT22;9632;51.018;4.284;2023-08-07T05:00:23;14.10;99.90
18998;DHT22;9632;51.018;4.284;2023-08-07T05:02:49;14.20;99.90
18998;DHT22;9632;51.018;4.284;2023-08-07T05:05:15;14.30;99.90
18998;DHT22;9632;51.018;4.284;2023-08-07T05:07:41;14.40;99.90
18998;DHT22;9632;51.018;4.284;2023-08-07T05:10:08;14.60;99.90
18998;DHT22;9632;51.018;4.284;2023-08-07T05:12:34;14.70;99.90
18998;DHT22;9632;51.018;4.284;2023-08-07T05:15:00;14.90;99.90
18998;DHT22;9632;51.018;4.284;2023-08-07T05:17:25;15.00;99.90
18998;DHT22;9632;51.018;4.284;2023-08-07T05:19:51;15.10;99.90
18998;DHT22;9632;51.018;4.284;2023-08-07T05:22:17;15.30;99.90
18998;DHT22;9632;51.018;4.284;2023-08-07T05:24:42;15.40;99.90
18998;DHT22;9632;51.018;4.284;2023-08-07T05:27:10;15.50;99.90
18998;DHT22;9632;51.018;4.284;2023-08-07T05:29:36;15.70;99.90
18998;DHT22;9632;51.018;4.284;2023-08-07T05:32:09;15.90;99.90
18998;DHT22;9632;51.018;4.284;2023-08-07T05:34:35;16.10;99.90
18998;DHT22;9632;51.018;4.284;2023-08-07T05:37:01;16.20;99.90
18998;DHT22;9632;51.018;4.284;2023-08-07T05:39:27;16.40;99.90
18998;DHT22;9632;51.018;4.284;2023-08-07T05:41:52;16.50;99.90
18998;DHT22;9632;51.018;4.284;2023-08-07T05:44:20;16.70;99.90
18998;DHT22;9632;51.018;4.284;2023-08-07T05:46:45;16.80;99.90
18998;DHT22;9632;51.018;4.284;2023-08-07T05:49:11;17.00;99.90
18998;DHT22;9632;51.018;4.284;2023-08-07T05:51:37;17.10;99.90
18998;DHT22;9632;51.018;4.284;2023-08-07T05:54:02;17.30;99.90
18998;DHT22;9632;51.018;4.284;2023-08-07T05:56:28;17.40;99.90
18998;DHT22;9632;51.018;4.284;2023-08-07T05:58:54;17.60;99.90
18998;DHT22;9632;51.018;4.284;2023-08-07T06:01:19;17.80;99.90
18998;DHT22;9632;51.018;4.284;2023-08-07T06:03:45;17.90;99.90
18998;DHT22;9632;51.018;4.284;2023-08-07T06:06:12;18.10;99.90
18998;DHT22;9632;51.018;4.284;2023-08-07T06:08:37;18.20;99.90
18998;DHT22;9632;51.018;4.284;2023-08-07T06:11:03;18.30;99.90
18998;DHT22;9632;51.018;4.284;2023-08-07T06:13:30;18.40;99.90
18998;DHT22;9632;51.018;4.284;2023-08-07T06:15:56;18.50;99.90
18998;DHT22;9632;51.018;4.284;2023-08-07T06:18:21;18.60;99.90
18998;DHT22;9632;51.018;4.284;2023-08-07T06:20:47;18.70;99.90
18998;DHT22;9632;51.018;4.284;2023-08-07T06:23:13;18.80;99.90
18998;DHT22;9632;51.018;4.284;2023-08-07T06:25:39;18.90;99.90
18998;DHT22;9632;51.018;4.284;2023-08-07T06:28:04;18.90;99.90
18998;DHT22;9632;51.018;4.284;2023-08-07T06:30:33;19.00;99.90
18998;DHT22;9632;51.018;4.284;2023-08-07T06:32:59;19.00;99.90
18998;DHT22;9632;51.018;4.284;2023-08-07T06:35:24;19.20;99.90
18998;DHT22;9632;51.018;4.284;2023-08-07T06:37:50;19.20;99.90
18998;DHT22;9632;51.018;4.284;2023-08-07T06:40:15;19.30;99.90
18998;DHT22;9632;51.018;4.284;2023-08-07T06:42:41;19.30;99.90
18998;DHT22;9632;51.018;4.284;2023-08-07T06:45:07;19.50;99.90
18998;DHT22;9632;51.018;4.284;2023-08-07T06:47:33;19.50;99.90
18998;DHT22;9632;51.018;4.284;2023-08-07T06:49:58;19.60;99.90
18998;DHT22;9632;51.018;4.284;2023-08-07T06:52:24;19.70;99.90
18998;DHT22;9632;51.018;4.284;2023-08-07T06:54:49;19.80;99.90
18998;DHT22;9632;51.018;4.284;2023-08-07T06:57:15;19.80;99.90
18998;DHT22;9632;51.018;4.284;2023-08-07T06:59:41;19.80;99.90
18998;DHT22;9632;51.018;4.284;2023-08-07T07:02:06;19.90;99.90
18998;DHT22;9632;51.018;4.284;2023-08-07T07:04:32;19.90;99.90
18998;DHT22;9632;51.018;4.284;2023-08-07T07:06:58;19.90;99.90
18998;DHT22;9632;51.018;4.284;2023-08-07T07:09:24;20.00;99.90
18998;DHT22;9632;51.018;4.284;2023-08-07T07:11:50;20.10;99.90
18998;DHT22;9632;51.018;4.284;2023-08-07T07:14:15;20.20;99.90
18998;DHT22;9632;51.018;4.284;2023-08-07T07:16:41;20.20;99.90
18998;DHT22;9632;51.018;4.284;2023-08-07T07:19:07;20.30;99.90
18998;DHT22;9632;51.018;4.284;2023-08-07T07:21:35;20.40;99.90
18998;DHT22;9632;51.018;4.284;2023-08-07T07:24:02;20.50;99.90
18998;DHT22;9632;51.018;4.284;2023-08-07T07:26:28;20.50;99.90
18998;DHT22;9632;51.018;4.284;2023-08-07T07:28:54;20.50;99.90
18998;DHT22;9632;51.018;4.284;2023-08-07T07:31:19;20.60;99.90
18998;DHT22;9632;51.018;4.284;2023-08-07T07:33:45;20.60;99.90
18998;DHT22;9632;51.018;4.284;2023-08-07T07:36:18;20.70;99.90
18998;DHT22;9632;51.018;4.284;2023-08-07T07:38:47;20.80;99.90
18998;DHT22;9632;51.018;4.284;2023-08-07T07:41:14;20.80;99.90
18998;DHT22;9632;51.018;4.284;2023-08-07T07:43:40;20.90;99.90
18998;DHT22;9632;51.018;4.284;2023-08-07T07:46:06;20.90;99.90
18998;DHT22;9632;51.018;4.284;2023-08-07T07:48:31;21.00;99.90
18998;DHT22;9632;51.018;4.284;2023-08-07T07:51:04;21.10;99.90
18998;DHT22;9632;51.018;4.284;2023-08-07T07:53:30;21.20;99.90
18998;DHT22;9632;51.018;4.284;2023-08-07T07:55:56;21.30;99.90
18998;DHT22;9632;51.018;4.284;2023-08-07T07:58:23;21.30;99.90
18998;DHT22;9632;51.018;4.284;2023-08-07T08:00:48;21.30;99.90
18998;DHT22;9632;51.018;4.284;2023-08-07T08:03:14;21.40;99.90
18998;DHT22;9632;51.018;4.284;2023-08-07T08:05:40;21.40;99.90
18998;DHT22;9632;51.018;4.284;2023-08-07T08:08:06;21.40;99.90
18998;DHT22;9632;51.018;4.284;2023-08-07T08:10:35;21.40;99.90
18998;DHT22;9632;51.018;4.284;2023-08-07T08:13:01;21.40;99.90
18998;DHT22;9632;51.018;4.284;2023-08-07T08:15:29;21.40;99.90
18998;DHT22;9632;51.018;4.284;2023-08-07T08:17:55;21.40;99.90
18998;DHT22;9632;51.018;4.284;2023-08-07T08:20:20;21.40;99.90
18998;DHT22;9632;51.018;4.284;2023-08-07T08:22:46;21.30;99.90
18998;DHT22;9632;51.018;4.284;2023-08-07T08:25:12;21.20;99.90
18998;DHT22;9632;51.018;4.284;2023-08-07T08:27:39;21.00;99.90
18998;DHT22;9632;51.018;4.284;2023-08-07T08:30:05;20.80;99.90
18998;DHT22;9632;51.018;4.284;2023-08-07T08:32:31;20.70;99.90
18998;DHT22;9632;51.018;4.284;2023-08-07T08:34:56;20.80;99.90
18998;DHT22;9632;51.018;4.284;2023-08-07T08:37:22;20.80;99.90
18998;DHT22;9632;51.018;4.284;2023-08-07T08:39:48;20.80;99.90
18998;DHT22;9632;51.018;4.284;2023-08-07T08:42:15;20.70;99.90
18998;DHT22;9632;51.018;4.284;2023-08-07T08:44:52;20.70;99.90
18998;DHT22;9632;51.018;4.284;2023-08-07T08:47:18;20.70;99.90
18998;DHT22;9632;51.018;4.284;2023-08-07T08:50:13;20.70;99.90
18998;DHT22;9632;51.018;4.284;2023-08-07T08:52:42;20.80;99.90
18998;DHT22;9632;51.018;4.284;2023-08-07T08:55:10;21.00;99.90
18998;DHT22;9632;51.018;4.284;2023-08-07T08:57:37;21.10;99.90
18998;DHT22;9632;51.018;4.284;2023-08-07T09:00:05;21.20;99.90
18998;DHT22;9632;51.018;4.284;2023-08-07T09:02:47;21.30;99.90
18998;DHT22;9632;51.018;4.284;2023-08-07T09:05:14;21.40;99.90
18998;DHT22;9632;51.018;4.284;2023-08-07T09:07:41;21.40;99.90
18998;DHT22;9632;51.018;4.284;2023-08-07T09:10:09;21.40;99.90
18998;DHT22;9632;51.018;4.284;2023-08-07T09:12:41;21.40;99.90
18998;DHT22;9632;51.018;4.284;2023-08-07T09:15:10;21.50;99.90
18998;DHT22;9632;51.018;4.284;2023-08-07T09:17:41;21.50;99.90
18998;DHT22;9632;51.018;4.284;2023-08-07T09:20:08;21.60;99.90
18998;DHT22;9632;51.018;4.284;2023-08-07T09:22:39;21.60;99.90
18998;DHT22;9632;51.018;4.284;2023-08-07T09:25:06;21.60;99.90
18998;DHT22;9632;51.018;4.284;2023-08-07T09:27:31;21.80;99.90
18998;DHT22;9632;51.018;4.284;2023-08-07T09:29:58;21.90;99.90
18998;DHT22;9632;51.018;4.284;2023-08-07T09:32:24;22.00;99.90
18998;DHT22;9632;51.018;4.284;2023-08-07T09:34:50;22.00;99.90
18998;DHT22;9632;51.018;4.284;2023-08-07T09:37:17;21.90;99.90
18998;DHT22;9632;51.018;4.284;2023-08-07T09:39:43;21.90;99.90
18998;DHT22;9632;51.018;4.284;2023-08-07T09:42:15;21.90;99.90
18998;DHT22;9632;51.018;4.284;2023-08-07T09:44:41;21.90;99.90
18998;DHT22;9632;51.018;4.284;2023-08-07T09:47:15;22.00;99.90
18998;DHT22;9632;51.018;4.284;2023-08-07T09:49:41;22.10;99.90
18998;DHT22;9632;51.018;4.284;2023-08-07T09:52:08;22.20;99.90
18998;DHT22;9632;51.018;4.284;2023-08-07T09:54:34;22.10;99.90
18998;DHT22;9632;51.018;4.284;2023-08-07T09:57:02;22.00;99.90
18998;DHT22;9632;51.018;4.284;2023-08-07T09:59:28;21.90;99.90
18998;DHT22;9632;51.018;4.284;2023-08-07T10:01:55;21.80;99.90
18998;DHT22;9632;51.018;4.284;2023-08-07T10:04:22;21.80;99.90
18998;DHT22;9632;51.018;4.284;2023-08-07T10:06:48;21.90;99.90
18998;DHT22;9632;51.018;4.284;2023-08-07T10:09:14;22.00;99.90
18998;DHT22;9632;51.018;4.284;2023-08-07T10:11:41;22.20;99.90
18998;DHT22;9632;51.018;4.284;2023-08-07T10:14:08;22.30;99.90
18998;DHT22;9632;51.018;4.284;2023-08-07T10:16:35;22.30;99.90
18998;DHT22;9632;51.018;4.284;2023-08-07T10:19:05;22.40;99.90
18998;DHT22;9632;51.018;4.284;2023-08-07T10:21:33;22.40;99.90
18998;DHT22;9632;51.018;4.284;2023-08-07T10:24:00;22.30;99.90
18998;DHT22;9632;51.018;4.284;2023-08-07T10:26:28;22.40;99.90
18998;DHT22;9632;51.018;4.284;2023-08-07T10:28:55;22.40;99.90
18998;DHT22;9632;51.018;4.284;2023-08-07T10:31:23;22.50;99.90
18998;DHT22;9632;51.018;4.284;2023-08-07T10:33:49;22.60;99.90
18998;DHT22;9632;51.018;4.284;2023-08-07T10:36:16;22.60;99.90
18998;DHT22;9632;51.018;4.284;2023-08-07T10:38:42;22.50;99.90
18998;DHT22;9632;51.018;4.284;2023-08-07T10:41:18;22.40;99.90
18998;DHT22;9632;51.018;4.284;2023-08-07T10:43:45;22.40;99.90
18998;DHT22;9632;51.018;4.284;2023-08-07T10:46:12;22.50;99.90
18998;DHT22;9632;51.018;4.284;2023-08-07T10:48:46;22.50;99.90
18998;DHT22;9632;51.018;4.284;2023-08-07T10:51:16;22.50;99.90
18998;DHT22;9632;51.018;4.284;2023-08-07T10:53:44;22.50;99.90
18998;DHT22;9632;51.018;4.284;2023-08-07T10:56:30;22.40;99.90
18998;DHT22;9632;51.018;4.284;2023-08-07T10:58:55;22.30;99.90
18998;DHT22;9632;51.018;4.284;2023-08-07T11:01:40;22.30;99.90
18998;DHT22;9632;51.018;4.284;2023-08-07T11:06:34;22.40;99.90
18998;DHT22;9632;51.018;4.284;2023-08-07T11:09:01;22.50;99.90
18998;DHT22;9632;51.018;4.284;2023-08-07T11:11:32;22.50;99.90
18998;DHT22;9632;51.018;4.284;2023-08-07T11:14:00;22.50;99.90
18998;DHT22;9632;51.018;4.284;2023-08-07T11:16:26;22.50;99.90
18998;DHT22;9632;51.018;4.284;2023-08-07T11:18:53;22.50;99.90
18998;DHT22;9632;51.018;4.284;2023-08-07T11:21:19;22.40;99.90
18998;DHT22;9632;51.018;4.284;2023-08-07T11:23:45;22.30;99.90
18998;DHT22;9632;51.018;4.284;2023-08-07T11:26:12;22.30;99.90
18998;DHT22;9632;51.018;4.284;2023-08-07T11:28:37;22.50;99.90
18998;DHT22;9632;51.018;4.284;2023-08-07T11:31:03;22.60;99.90
18998;DHT22;9632;51.018;4.284;2023-08-07T11:33:29;22.60;99.90
18998;DHT22;9632;51.018;4.284;2023-08-07T11:35:55;22.60;99.90
18998;DHT22;9632;51.018;4.284;2023-08-07T11:38:33;22.50;99.90
18998;DHT22;9632;51.018;4.284;2023-08-07T11:41:01;22.50;99.90
18998;DHT22;9632;51.018;4.284;2023-08-07T11:43:28;22.50;99.90
18998;DHT22;9632;51.018;4.284;2023-08-07T11:45:56;22.50;99.90
18998;DHT22;9632;51.018;4.284;2023-08-07T11:48:24;22.40;99.90
18998;DHT22;9632;51.018;4.284;2023-08-07T11:50:51;22.40;99.90
18998;DHT22;9632;51.018;4.284;2023-08-07T11:53:17;22.50;99.90
18998;DHT22;9632;51.018;4.284;2023-08-07T11:55:55;22.50;99.90
18998;DHT22;9632;51.018;4.284;2023-08-07T11:58:21;22.50;99.90
18998;DHT22;9632;51.018;4.284;2023-08-07T12:00:47;22.50;99.90
18998;DHT22;9632;51.018;4.284;2023-08-07T12:03:29;22.50;99.90
18998;DHT22;9632;51.018;4.284;2023-08-07T12:05:58;22.60;99.90
18998;DHT22;9632;51.018;4.284;2023-08-07T12:08:35;22.70;99.90
18998;DHT22;9632;51.018;4.284;2023-08-07T12:11:06;22.80;99.90
18998;DHT22;9632;51.018;4.284;2023-08-07T12:13:32;22.90;99.90
18998;DHT22;9632;51.018;4.284;2023-08-07T12:16:01;23.00;99.90
18998;DHT22;9632;51.018;4.284;2023-08-07T12:18:30;23.00;99.90
18998;DHT22;9632;51.018;4.284;2023-08-07T12:21:06;23.00;99.90
18998;DHT22;9632;51.018;4.284;2023-08-07T12:23:33;23.00;99.90
18998;DHT22;9632;51.018;4.284;2023-08-07T12:25:59;23.00;99.90
18998;DHT22;9632;51.018;4.284;2023-08-07T12:28:25;23.10;99.90
18998;DHT22;9632;51.018;4.284;2023-08-07T12:30:51;23.10;99.90
18998;DHT22;9632;51.018;4.284;2023-08-07T12:33:18;23.10;99.90
18998;DHT22;9632;51.018;4.284;2023-08-07T12:35:43;23.00;99.90
18998;DHT22;9632;51.018;4.284;2023-08-07T12:38:09;23.00;99.90
18998;DHT22;9632;51.018;4.284;2023-08-07T12:40:35;23.00;99.90
18998;DHT22;9632;51.018;4.284;2023-08-07T12:43:02;23.00;99.90
18998;DHT22;9632;51.018;4.284;2023-08-07T12:45:28;23.00;99.90
18998;DHT22;9632;51.018;4.284;2023-08-07T12:47:54;23.00;99.90
18998;DHT22;9632;51.018;4.284;2023-08-07T12:50:19;23.00;99.90
18998;DHT22;9632;51.018;4.284;2023-08-07T12:52:45;23.00;99.90
18998;DHT22;9632;51.018;4.284;2023-08-07T12:55:11;23.10;99.90
18998;DHT22;9632;51.018;4.284;2023-08-07T12:57:43;23.00;99.90
18998;DHT22;9632;51.018;4.284;2023-08-07T13:00:10;23.00;99.90
18998;DHT22;9632;51.018;4.284;2023-08-07T13:02:43;23.00;99.90
18998;DHT22;9632;51.018;4.284;2023-08-07T13:05:09;23.00;99.90
18998;DHT22;9632;51.018;4.284;2023-08-07T13:07:36;23.00;99.90
18998;DHT22;9632;51.018;4.284;2023-08-07T13:10:04;23.00;99.90
18998;DHT22;9632;51.018;4.284;2023-08-07T13:12:30;23.10;99.90
18998;DHT22;9632;51.018;4.284;2023-08-07T13:14:59;23.20;99.90
18998;DHT22;9632;51.018;4.284;2023-08-07T13:17:25;23.10;99.90
18998;DHT22;9632;51.018;4.284;2023-08-07T13:19:51;23.20;99.90
18998;DHT22;9632;51.018;4.284;2023-08-07T13:22:16;23.00;99.90
18998;DHT22;9632;51.018;4.284;2023-08-07T13:24:42;23.00;99.90
18998;DHT22;9632;51.018;4.284;2023-08-07T13:27:08;23.00;99.90
18998;DHT22;9632;51.018;4.284;2023-08-07T13:29:34;23.00;99.90
18998;DHT22;9632;51.018;4.284;2023-08-07T13:32:00;23.10;99.90
18998;DHT22;9632;51.018;4.284;2023-08-07T13:34:25;23.00;99.90
18998;DHT22;9632;51.018;4.284;2023-08-07T13:36:51;23.00;99.90
18998;DHT22;9632;51.018;4.284;2023-08-07T13:39:17;22.80;99.90
18998;DHT22;9632;51.018;4.284;2023-08-07T13:41:42;22.80;99.90
18998;DHT22;9632;51.018;4.284;2023-08-07T13:44:08;22.80;99.90
18998;DHT22;9632;51.018;4.284;2023-08-07T13:46:34;22.80;99.90
18998;DHT22;9632;51.018;4.284;2023-08-07T13:49:00;22.80;99.90
18998;DHT22;9632;51.018;4.284;2023-08-07T13:51:25;22.80;99.90
18998;DHT22;9632;51.018;4.284;2023-08-07T13:53:51;22.80;99.90
18998;DHT22;9632;51.018;4.284;2023-08-07T13:56:18;22.80;99.90
18998;DHT22;9632;51.018;4.284;2023-08-07T13:58:43;22.70;99.90
18998;DHT22;9632;51.018;4.284;2023-08-07T14:01:09;22.60;99.90
18998;DHT22;9632;51.018;4.284;2023-08-07T14:03:35;22.50;99.90
18998;DHT22;9632;51.018;4.284;2023-08-07T14:06:01;22.60;99.90
18998;DHT22;9632;51.018;4.284;2023-08-07T14:08:26;22.60;99.90
18998;DHT22;9632;51.018;4.284;2023-08-07T14:10:53;22.60;99.90
18998;DHT22;9632;51.018;4.284;2023-08-07T14:13:19;22.70;99.90
18998;DHT22;9632;51.018;4.284;2023-08-07T14:15:44;22.70;99.90
18998;DHT22;9632;51.018;4.284;2023-08-07T14:18:10;22.70;99.90
18998;DHT22;9632;51.018;4.284;2023-08-07T14:20:37;22.70;99.90
18998;DHT22;9632;51.018;4.284;2023-08-07T14:23:02;22.60;99.90
18998;DHT22;9632;51.018;4.284;2023-08-07T14:25:28;22.60;99.90
18998;DHT22;9632;51.018;4.284;2023-08-07T14:27:54;22.60;99.90
18998;DHT22;9632;51.018;4.284;2023-08-07T14:30:20;22.50;99.90
18998;DHT22;9632;51.018;4.284;2023-08-07T14:32:45;22.60;99.90
18998;DHT22;9632;51.018;4.284;2023-08-07T14:35:13;22.60;99.90
18998;DHT22;9632;51.018;4.284;2023-08-07T14:37:39;22.60;99.90
18998;DHT22;9632;51.018;4.284;2023-08-07T14:40:07;22.60;99.90
18998;DHT22;9632;51.018;4.284;2023-08-07T14:42:33;22.70;99.90
18998;DHT22;9632;51.018;4.284;2023-08-07T14:44:59;22.60;99.90
18998;DHT22;9632;51.018;4.284;2023-08-07T14:47:25;22.60;99.90
18998;DHT22;9632;51.018;4.284;2023-08-07T14:49:51;22.50;99.90
18998;DHT22;9632;51.018;4.284;2023-08-07T14:52:17;22.50;99.90
18998;DHT22;9632;51.018;4.284;2023-08-07T14:54:43;22.50;99.90
18998;DHT22;9632;51.018;4.284;2023-08-07T14:57:09;22.50;99.90
18998;DHT22;9632;51.018;4.284;2023-08-07T14:59:34;22.40;99.90
18998;DHT22;9632;51.018;4.284;2023-08-07T15:02:00;22.30;99.90
18998;DHT22;9632;51.018;4.284;2023-08-07T15:04:26;22.20;99.90
18998;DHT22;9632;51.018;4.284;2023-08-07T15:06:52;22.20;99.90
18998;DHT22;9632;51.018;4.284;2023-08-07T15:09:18;22.20;99.90
18998;DHT22;9632;51.018;4.284;2023-08-07T15:11:45;22.20;99.90
18998;DHT22;9632;51.018;4.284;2023-08-07T15:14:12;22.10;99.90
18998;DHT22;9632;51.018;4.284;2023-08-07T15:16:37;22.10;99.90
18998;DHT22;9632;51.018;4.284;2023-08-07T15:19:03;22.10;99.90
18998;DHT22;9632;51.018;4.284;2023-08-07T15:21:30;22.20;99.90
18998;DHT22;9632;51.018;4.284;2023-08-07T15:23:55;22.10;99.90
18998;DHT22;9632;51.018;4.284;2023-08-07T15:26:21;22.10;99.90
18998;DHT22;9632;51.018;4.284;2023-08-07T15:28:47;22.10;99.90
18998;DHT22;9632;51.018;4.284;2023-08-07T15:31:13;22.00;99.90
18998;DHT22;9632;51.018;4.284;2023-08-07T15:33:38;22.00;99.90
18998;DHT22;9632;51.018;4.284;2023-08-07T15:36:04;22.10;99.90
18998;DHT22;9632;51.018;4.284;2023-08-07T15:38:30;22.00;99.90
18998;DHT22;9632;51.018;4.284;2023-08-07T15:40:56;22.10;99.90
18998;DHT22;9632;51.018;4.284;2023-08-07T15:43:22;22.10;99.90
18998;DHT22;9632;51.018;4.284;2023-08-07T15:45:51;22.10;99.90
18998;DHT22;9632;51.018;4.284;2023-08-07T15:48:20;22.00;99.90
18998;DHT22;9632;51.018;4.284;2023-08-07T15:50:45;22.00;99.90
18998;DHT22;9632;51.018;4.284;2023-08-07T15:53:11;22.00;99.90